sensor_id;sensor_type;location;lat;lon;timestamp;pressure;altitude;pressure_sealevel;temperature;humidity
38452;BME280;24231;52.514;13.438;2023-03-16T00:03:02;101615.58;;;4.69;55.67
38452;BME280;24231;52.514;13.438;2023-03-16T00:05:30;101619.65;;;3.27;60.33
38452;BME280;24231;52.514;13.438;2023-03-16T00:07:56;101623.89;;;3.09;61.14
38452;BME280;24231;52.514;13.438;2023-03-16T00:10:23;101622.73;;;4.01;58.59
38452;BME280;24231;52.514;13.438;2023-03-16T00:12:50;101630.62;;;3.24;61.16
38452;BME280;24231;52.514;13.438;2023-03-16T00:15:17;101629.71;;;3.81;59.99
38452;BME280;24231;52.514;13.438;2023-03-16T00:17:44;101625.03;;;4.14;58.75
38452;BME280;24231;52.514;13.438;2023-03-16T00:20:12;101626.78;;;3.64;60.32
38452;BME280;24231;52.514;13.438;2023-03-16T00:22:39;101628.23;;;2.77;62.39
38452;BME280;24231;52.514;13.438;2023-03-16T00:25:07;101628.49;;;2.79;62.69
38452;BME280;24231;52.514;13.438;2023-03-16T00:27:34;101629.08;;;3.58;60.05
38452;BME280;24231;52.514;13.438;2023-03-16T00:30:01;101626.82;;;3.47;61.07
38452;BME280;24231;52.514;13.438;2023-03-16T00:32:30;101630.85;;;3.19;61.19
38452;BME280;24231;52.514;13.438;2023-03-16T00:34:58;101631.73;;;3.09;61.67
38452;BME280;24231;52.514;13.438;2023-03-16T00:37:27;101631.71;;;3.12;60.35
38452;BME280;24231;52.514;13.438;2023-03-16T00:39:55;101631.83;;;3.49;60.16
38452;BME280;24231;52.514;13.438;2023-03-16T00:42:24;101635.36;;;3.04;60.81
38452;BME280;24231;52.514;13.438;2023-03-16T00:44:52;101637.11;;;3.50;60.10
38452;BME280;24231;52.514;13.438;2023-03-16T00:47:19;101636.28;;;3.48;59.09
38452;BME280;24231;52.514;13.438;2023-03-16T00:49:45;101635.89;;;4.10;57.17
38452;BME280;24231;52.514;13.438;2023-03-16T00:52:13;101640.26;;;3.50;59.22
38452;BME280;24231;52.514;13.438;2023-03-16T00:54:40;101637.26;;;4.13;56.64
38452;BME280;24231;52.514;13.438;2023-03-16T00:57:12;101640.15;;;3.71;57.19
38452;BME280;24231;52.514;13.438;2023-03-16T00:59:40;101641.63;;;3.63;57.36
38452;BME280;24231;52.514;13.438;2023-03-16T01:02:09;101643.44;;;2.14;62.43
38452;BME280;24231;52.514;13.438;2023-03-16T01:04:37;101651.04;;;2.50;61.87
38452;BME280;24231;52.514;13.438;2023-03-16T01:07:05;101652.85;;;2.36;62.01
38452;BME280;24231;52.514;13.438;2023-03-16T01:09:32;101651.03;;;3.20;58.32
38452;BME280;24231;52.514;13.438;2023-03-16T01:11:59;101650.70;;;2.59;60.83
38452;BME280;24231;52.514;13.438;2023-03-16T01:14:26;101652.14;;;2.74;60.78
38452;BME280;24231;52.514;13.438;2023-03-16T01:16:53;101653.57;;;2.83;59.28
38452;BME280;24231;52.514;13.438;2023-03-16T01:19:20;101651.54;;;3.01;58.69
38452;BME280;24231;52.514;13.438;2023-03-16T01:21:47;101650.83;;;2.37;61.52
38452;BME280;24231;52.514;13.438;2023-03-16T01:24:14;101645.77;;;3.79;57.08
38452;BME280;24231;52.514;13.438;2023-03-16T01:26:40;101644.27;;;4.41;55.20
38452;BME280;24231;52.514;13.438;2023-03-16T01:29:07;101640.84;;;4.29;54.77
38452;BME280;24231;52.514;13.438;2023-03-16T01:31:35;101644.19;;;2.88;58.20
38452;BME280;24231;52.514;13.438;2023-03-16T01:34:03;101646.68;;;2.68;59.79
38452;BME280;24231;52.514;13.438;2023-03-16T01:36:30;101642.68;;;3.71;57.09
38452;BME280;24231;52.514;13.438;2023-03-16T01:38:58;101645.28;;;3.37;58.03
38452;BME280;24231;52.514;13.438;2023-03-16T01:41:25;101646.23;;;1.93;61.76
38452;BME280;24231;52.514;13.438;2023-03-16T01:43:53;101643.77;;;3.51;57.39
38452;BME280;24231;52.514;13.438;2023-03-16T01:46:22;101646.71;;;3.15;58.43
38452;BME280;24231;52.514;13.438;2023-03-16T01:48:56;101650.47;;;2.39;60.42
38452;BME280;24231;52.514;13.438;2023-03-16T01:51:28;101650.26;;;2.89;58.65
38452;BME280;24231;52.514;13.438;2023-03-16T01:54:02;101648.70;;;3.49;56.94
38452;BME280;24231;52.514;13.438;2023-03-16T01:56:34;101646.94;;;1.96;61.75
38452;BME280;24231;52.514;13.438;2023-03-16T01:59:08;101648.32;;;2.04;61.19
38452;BME280;24231;52.514;13.438;2023-03-16T02:01:36;101653.46;;;1.60;63.12
38452;BME280;24231;52.514;13.438;2023-03-16T02:04:13;101650.14;;;2.38;60.70
38452;BME280;24231;52.514;13.438;2023-03-16T02:06:43;101644.85;;;3.27;57.89
38452;BME280;24231;52.514;13.438;2023-03-16T02:09:12;101643.44;;;2.59;60.08
38452;BME280;24231;52.514;13.438;2023-03-16T02:11:39;101641.65;;;3.49;56.49
38452;BME280;24231;52.514;13.438;2023-03-16T02:14:10;101640.58;;;2.33;60.50
38452;BME280;24231;52.514;13.438;2023-03-16T02:16:38;101638.82;;;2.54;59.19
38452;BME280;24231;52.514;13.438;2023-03-16T02:19:10;101638.35;;;2.18;60.79
38452;BME280;24231;52.514;13.438;2023-03-16T02:21:46;101643.06;;;1.76;61.75
38452;BME280;24231;52.514;13.438;2023-03-16T02:24:14;101638.04;;;2.83;58.61
38452;BME280;24231;52.514;13.438;2023-03-16T02:26:46;101639.46;;;2.51;58.95
38452;BME280;24231;52.514;13.438;2023-03-16T02:29:23;101642.15;;;2.77;59.06
38452;BME280;24231;52.514;13.438;2023-03-16T02:31:53;101643.92;;;1.80;60.64
38452;BME280;24231;52.514;13.438;2023-03-16T02:34:22;101644.88;;;1.79;61.95
38452;BME280;24231;52.514;13.438;2023-03-16T02:36:52;101641.12;;;2.84;58.49
38452;BME280;24231;52.514;13.438;2023-03-16T02:39:20;101640.96;;;2.06;61.21
38452;BME280;24231;52.514;13.438;2023-03-16T02:41:47;101640.61;;;3.41;56.29
38452;BME280;24231;52.514;13.438;2023-03-16T02:44:17;101643.72;;;2.35;59.59
38452;BME280;24231;52.514;13.438;2023-03-16T02:46:47;101641.65;;;3.33;56.84
38452;BME280;24231;52.514;13.438;2023-03-16T02:49:17;101644.73;;;3.37;56.08
38452;BME280;24231;52.514;13.438;2023-03-16T02:51:47;101638.78;;;3.68;55.18
38452;BME280;24231;52.514;13.438;2023-03-16T02:54:14;101645.94;;;3.15;55.56
38452;BME280;24231;52.514;13.438;2023-03-16T02:56:40;101645.55;;;3.05;57.46
38452;BME280;24231;52.514;13.438;2023-03-16T02:59:07;101647.13;;;2.82;57.90
38452;BME280;24231;52.514;13.438;2023-03-16T03:01:35;101647.96;;;2.48;58.24
38452;BME280;24231;52.514;13.438;2023-03-16T03:04:03;101647.61;;;3.25;55.73
38452;BME280;24231;52.514;13.438;2023-03-16T03:06:31;101653.40;;;2.48;57.82
38452;BME280;24231;52.514;13.438;2023-03-16T03:08:59;101655.32;;;2.48;58.35
38452;BME280;24231;52.514;13.438;2023-03-16T03:11:26;101656.58;;;3.09;56.21
38452;BME280;24231;52.514;13.438;2023-03-16T03:13:53;101662.26;;;2.84;56.18
38452;BME280;24231;52.514;13.438;2023-03-16T03:16:20;101658.41;;;3.49;55.03
38452;BME280;24231;52.514;13.438;2023-03-16T03:18:47;101663.84;;;3.70;55.03
38452;BME280;24231;52.514;13.438;2023-03-16T03:21:15;101669.48;;;3.04;56.10
38452;BME280;24231;52.514;13.438;2023-03-16T03:23:42;101669.11;;;2.44;58.06
38452;BME280;24231;52.514;13.438;2023-03-16T03:26:09;101671.56;;;2.55;57.77
38452;BME280;24231;52.514;13.438;2023-03-16T03:28:36;101677.28;;;1.96;59.83
38452;BME280;24231;52.514;13.438;2023-03-16T03:31:03;101674.09;;;3.56;55.28
38452;BME280;24231;52.514;13.438;2023-03-16T03:33:31;101676.58;;;2.66;57.30
38452;BME280;24231;52.514;13.438;2023-03-16T03:35:58;101677.73;;;2.07;59.31
38452;BME280;24231;52.514;13.438;2023-03-16T03:38:26;101679.43;;;2.27;60.15
38452;BME280;24231;52.514;13.438;2023-03-16T03:40:53;101674.18;;;3.28;55.68
38452;BME280;24231;52.514;13.438;2023-03-16T03:43:20;101681.98;;;1.42;61.12
38452;BME280;24231;52.514;13.438;2023-03-16T03:45:47;101678.50;;;2.04;60.48
38452;BME280;24231;52.514;13.438;2023-03-16T03:48:20;101683.40;;;1.31;61.61
38452;BME280;24231;52.514;13.438;2023-03-16T03:50:47;101678.35;;;2.14;59.54
38452;BME280;24231;52.514;13.438;2023-03-16T03:53:13;101678.85;;;2.47;58.34
38452;BME280;24231;52.514;13.438;2023-03-16T03:55:41;101677.33;;;2.81;56.74
38452;BME280;24231;52.514;13.438;2023-03-16T03:58:08;101678.15;;;3.25;56.04
38452;BME280;24231;52.514;13.438;2023-03-16T04:00:34;101675.39;;;2.46;57.43
38452;BME280;24231;52.514;13.438;2023-03-16T04:03:01;101678.39;;;2.12;58.49
38452;BME280;24231;52.514;13.438;2023-03-16T04:05:28;101677.75;;;2.54;57.46
38452;BME280;24231;52.514;13.438;2023-03-16T04:07:56;101678.39;;;2.46;58.09
38452;BME280;24231;52.514;13.438;2023-03-16T04:10:24;101679.19;;;2.26;58.91
38452;BME280;24231;52.514;13.438;2023-03-16T04:12:52;101678.62;;;2.08;58.25
38452;BME280;24231;52.514;13.438;2023-03-16T04:15:19;101678.78;;;2.56;57.79
38452;BME280;24231;52.514;13.438;2023-03-16T04:17:46;101677.72;;;3.20;56.13
38452;BME280;24231;52.514;13.438;2023-03-16T04:20:14;101679.01;;;2.88;56.26
38452;BME280;24231;52.514;13.438;2023-03-16T04:22:41;101676.25;;;2.48;57.03
38452;BME280;24231;52.514;13.438;2023-03-16T04:25:09;101678.15;;;2.76;56.66
38452;BME280;24231;52.514;13.438;2023-03-16T04:27:36;101678.56;;;3.03;55.69
38452;BME280;24231;52.514;13.438;2023-03-16T04:30:04;101680.75;;;1.86;58.84
38452;BME280;24231;52.514;13.438;2023-03-16T04:32:32;101681.57;;;3.82;53.71
38452;BME280;24231;52.514;13.438;2023-03-16T04:34:59;101677.40;;;4.26;52.27
38452;BME280;24231;52.514;13.438;2023-03-16T04:37:26;101673.09;;;4.43;51.47
38452;BME280;24231;52.514;13.438;2023-03-16T04:39:53;101673.09;;;4.49;51.28
38452;BME280;24231;52.514;13.438;2023-03-16T04:42:19;101681.45;;;2.01;58.48
38452;BME280;24231;52.514;13.438;2023-03-16T04:44:46;101681.14;;;3.35;54.32
38452;BME280;24231;52.514;13.438;2023-03-16T04:47:15;101682.50;;;3.45;53.86
38452;BME280;24231;52.514;13.438;2023-03-16T04:49:42;101683.33;;;2.25;57.65
38452;BME280;24231;52.514;13.438;2023-03-16T04:52:09;101685.17;;;2.92;54.97
38452;BME280;24231;52.514;13.438;2023-03-16T04:54:36;101686.78;;;3.96;52.94
38452;BME280;24231;52.514;13.438;2023-03-16T04:57:03;101685.64;;;4.00;52.55
38452;BME280;24231;52.514;13.438;2023-03-16T04:59:30;101685.18;;;4.15;51.95
38452;BME280;24231;52.514;13.438;2023-03-16T05:01:57;101686.00;;;4.39;51.26
38452;BME280;24231;52.514;13.438;2023-03-16T05:04:24;101689.69;;;4.06;52.12
38452;BME280;24231;52.514;13.438;2023-03-16T05:06:51;101691.35;;;4.55;50.78
38452;BME280;24231;52.514;13.438;2023-03-16T05:09:18;101698.97;;;2.89;55.61
38452;BME280;24231;52.514;13.438;2023-03-16T05:11:45;101696.23;;;4.10;51.63
38452;BME280;24231;52.514;13.438;2023-03-16T05:14:12;101694.87;;;4.27;50.66
38452;BME280;24231;52.514;13.438;2023-03-16T05:16:39;101696.38;;;4.75;49.72
38452;BME280;24231;52.514;13.438;2023-03-16T05:19:07;101697.08;;;3.98;51.54
38452;BME280;24231;52.514;13.438;2023-03-16T05:21:34;101695.66;;;4.36;51.05
38452;BME280;24231;52.514;13.438;2023-03-16T05:24:01;101695.05;;;4.32;51.26
38452;BME280;24231;52.514;13.438;2023-03-16T05:26:38;101701.34;;;3.67;51.82
38452;BME280;24231;52.514;13.438;2023-03-16T05:29:06;101701.16;;;3.28;53.36
38452;BME280;24231;52.514;13.438;2023-03-16T05:31:33;101703.97;;;3.78;51.86
38452;BME280;24231;52.514;13.438;2023-03-16T05:34:00;101707.12;;;2.21;55.88
38452;BME280;24231;52.514;13.438;2023-03-16T05:36:43;101708.81;;;3.45;52.93
38452;BME280;24231;52.514;13.438;2023-03-16T05:39:10;101706.46;;;4.49;50.32
38452;BME280;24231;52.514;13.438;2023-03-16T05:41:37;101709.08;;;5.11;48.62
38452;BME280;24231;52.514;13.438;2023-03-16T05:44:04;101706.30;;;4.55;49.83
38452;BME280;24231;52.514;13.438;2023-03-16T05:46:32;101706.44;;;4.42;50.20
38452;BME280;24231;52.514;13.438;2023-03-16T05:48:59;101710.43;;;4.78;49.42
38452;BME280;24231;52.514;13.438;2023-03-16T05:51:26;101716.75;;;4.55;49.85
38452;BME280;24231;52.514;13.438;2023-03-16T05:53:54;101714.90;;;4.86;49.95
38452;BME280;24231;52.514;13.438;2023-03-16T05:56:22;101718.89;;;5.05;49.57
38452;BME280;24231;52.514;13.438;2023-03-16T05:58:49;101718.24;;;6.47;45.64
38452;BME280;24231;52.514;13.438;2023-03-16T06:01:16;101720.07;;;6.75;45.05
38452;BME280;24231;52.514;13.438;2023-03-16T06:03:44;101724.10;;;7.18;43.42
38452;BME280;24231;52.514;13.438;2023-03-16T06:06:23;101720.35;;;7.47;42.90
38452;BME280;24231;52.514;13.438;2023-03-16T06:08:50;101722.34;;;6.61;44.25
38452;BME280;24231;52.514;13.438;2023-03-16T06:11:18;101721.63;;;7.91;41.66
38452;BME280;24231;52.514;13.438;2023-03-16T06:13:45;101718.46;;;8.28;40.82
38452;BME280;24231;52.514;13.438;2023-03-16T06:16:12;101720.52;;;8.42;40.28
38452;BME280;24231;52.514;13.438;2023-03-16T06:18:39;101721.29;;;8.32;40.38
38452;BME280;24231;52.514;13.438;2023-03-16T06:21:06;101716.81;;;8.74;40.13
38452;BME280;24231;52.514;13.438;2023-03-16T06:23:35;101725.79;;;8.32;40.70
38452;BME280;24231;52.514;13.438;2023-03-16T06:26:02;101725.90;;;8.21;40.62
38452;BME280;24231;52.514;13.438;2023-03-16T06:28:29;101728.43;;;8.35;40.74
38452;BME280;24231;52.514;13.438;2023-03-16T06:30:57;101731.38;;;8.54;40.33
38452;BME280;24231;52.514;13.438;2023-03-16T06:33:24;101732.75;;;8.30;41.22
38452;BME280;24231;52.514;13.438;2023-03-16T06:35:52;101730.53;;;8.77;39.83
38452;BME280;24231;52.514;13.438;2023-03-16T06:38:19;101737.23;;;9.04;39.66
38452;BME280;24231;52.514;13.438;2023-03-16T06:40:50;101738.37;;;8.86;39.39
38452;BME280;24231;52.514;13.438;2023-03-16T06:43:18;101739.35;;;8.99;40.22
38452;BME280;24231;52.514;13.438;2023-03-16T06:45:46;101739.50;;;8.94;39.33
38452;BME280;24231;52.514;13.438;2023-03-16T06:48:13;101745.41;;;9.40;38.95
38452;BME280;24231;52.514;13.438;2023-03-16T06:50:40;101751.32;;;9.68;37.97
38452;BME280;24231;52.514;13.438;2023-03-16T06:53:08;101758.53;;;9.86;37.76
38452;BME280;24231;52.514;13.438;2023-03-16T06:55:35;101759.45;;;9.70;38.22
38452;BME280;24231;52.514;13.438;2023-03-16T06:58:02;101758.26;;;9.90;37.55
38452;BME280;24231;52.514;13.438;2023-03-16T07:00:29;101759.68;;;10.03;37.23
38452;BME280;24231;52.514;13.438;2023-03-16T07:02:56;101758.57;;;10.29;37.69
38452;BME280;24231;52.514;13.438;2023-03-16T07:05:23;101762.53;;;10.57;36.39
38452;BME280;24231;52.514;13.438;2023-03-16T07:07:50;101765.21;;;10.31;38.12
38452;BME280;24231;52.514;13.438;2023-03-16T07:10:18;101767.29;;;10.48;36.16
38452;BME280;24231;52.514;13.438;2023-03-16T07:12:45;101767.79;;;10.92;36.19
38452;BME280;24231;52.514;13.438;2023-03-16T07:15:22;101770.11;;;10.98;35.84
38452;BME280;24231;52.514;13.438;2023-03-16T07:17:49;101772.88;;;10.90;35.40
38452;BME280;24231;52.514;13.438;2023-03-16T07:20:16;101776.60;;;10.72;35.69
38452;BME280;24231;52.514;13.438;2023-03-16T07:22:44;101780.67;;;10.58;34.80
38452;BME280;24231;52.514;13.438;2023-03-16T07:25:11;101780.57;;;10.78;34.78
38452;BME280;24231;52.514;13.438;2023-03-16T07:27:38;101782.76;;;10.61;34.82
38452;BME280;24231;52.514;13.438;2023-03-16T07:30:07;101786.32;;;10.98;34.53
38452;BME280;24231;52.514;13.438;2023-03-16T07:32:34;101792.24;;;10.90;34.39
38452;BME280;24231;52.514;13.438;2023-03-16T07:35:01;101796.73;;;10.63;34.12
38452;BME280;24231;52.514;13.438;2023-03-16T07:37:28;101793.41;;;11.39;33.68
38452;BME280;24231;52.514;13.438;2023-03-16T07:39:56;101796.67;;;11.66;33.25
38452;BME280;24231;52.514;13.438;2023-03-16T07:42:23;101800.34;;;11.92;33.69
38452;BME280;24231;52.514;13.438;2023-03-16T07:44:50;101799.10;;;12.10;33.00
38452;BME280;24231;52.514;13.438;2023-03-16T07:47:17;101795.63;;;12.40;32.91
38452;BME280;24231;52.514;13.438;2023-03-16T07:49:44;101792.07;;;12.93;30.78
38452;BME280;24231;52.514;13.438;2023-03-16T07:52:11;101792.17;;;12.79;31.18
38452;BME280;24231;52.514;13.438;2023-03-16T07:54:39;101789.28;;;12.42;31.16
38452;BME280;24231;52.514;13.438;2023-03-16T07:57:06;101794.62;;;12.31;31.15
38452;BME280;24231;52.514;13.438;2023-03-16T07:59:34;101796.62;;;11.92;31.33
38452;BME280;24231;52.514;13.438;2023-03-16T08:02:05;101794.23;;;12.71;30.78
38452;BME280;24231;52.514;13.438;2023-03-16T08:04:33;101797.27;;;13.14;30.29
38452;BME280;24231;52.514;13.438;2023-03-16T08:07:00;101800.64;;;12.95;29.63
38452;BME280;24231;52.514;13.438;2023-03-16T08:09:27;101804.52;;;13.01;30.44
38452;BME280;24231;52.514;13.438;2023-03-16T08:11:54;101809.43;;;13.44;31.21
38452;BME280;24231;52.514;13.438;2023-03-16T08:14:21;101807.29;;;13.76;29.35
38452;BME280;24231;52.514;13.438;2023-03-16T08:16:48;101805.50;;;13.34;29.56
38452;BME280;24231;52.514;13.438;2023-03-16T08:19:15;101800.74;;;13.70;29.08
38452;BME280;24231;52.514;13.438;2023-03-16T08:21:42;101797.73;;;13.42;29.06
38452;BME280;24231;52.514;13.438;2023-03-16T08:24:09;101797.40;;;13.92;28.34
38452;BME280;24231;52.514;13.438;2023-03-16T08:26:36;101797.28;;;14.47;27.95
38452;BME280;24231;52.514;13.438;2023-03-16T08:29:04;101792.46;;;12.70;29.33
38452;BME280;24231;52.514;13.438;2023-03-16T08:31:31;101802.74;;;13.56;27.45
38452;BME280;24231;52.514;13.438;2023-03-16T08:33:58;101802.51;;;13.23;28.20
38452;BME280;24231;52.514;13.438;2023-03-16T08:36:25;101802.89;;;12.95;29.43
38452;BME280;24231;52.514;13.438;2023-03-16T08:38:53;101806.03;;;14.16;27.38
38452;BME280;24231;52.514;13.438;2023-03-16T08:41:21;101807.37;;;14.14;28.52
38452;BME280;24231;52.514;13.438;2023-03-16T08:43:51;101809.82;;;13.66;27.92
38452;BME280;24231;52.514;13.438;2023-03-16T08:46:21;101808.02;;;12.91;28.70
38452;BME280;24231;52.514;13.438;2023-03-16T08:48:49;101810.64;;;13.20;28.69
38452;BME280;24231;52.514;13.438;2023-03-16T08:51:16;101814.14;;;12.60;28.79
38452;BME280;24231;52.514;13.438;2023-03-16T08:53:43;101817.10;;;12.59;28.60
38452;BME280;24231;52.514;13.438;2023-03-16T08:56:12;101820.05;;;13.57;27.90
38452;BME280;24231;52.514;13.438;2023-03-16T08:58:51;101821.54;;;12.69;28.03
38452;BME280;24231;52.514;13.438;2023-03-16T09:01:18;101821.90;;;13.60;27.37
38452;BME280;24231;52.514;13.438;2023-03-16T09:03:46;101822.10;;;13.43;28.24
38452;BME280;24231;52.514;13.438;2023-03-16T09:06:14;101822.79;;;14.27;27.48
38452;BME280;24231;52.514;13.438;2023-03-16T09:08:42;101825.20;;;14.43;27.06
38452;BME280;24231;52.514;13.438;2023-03-16T09:11:11;101824.29;;;14.63;26.42
38452;BME280;24231;52.514;13.438;2023-03-16T09:13:40;101825.88;;;15.09;26.11
38452;BME280;24231;52.514;13.438;2023-03-16T09:16:14;101828.90;;;14.21;26.71
38452;BME280;24231;52.514;13.438;2023-03-16T09:18:42;101832.06;;;13.72;26.76
38452;BME280;24231;52.514;13.438;2023-03-16T09:21:11;101832.65;;;12.31;27.90
38452;BME280;24231;52.514;13.438;2023-03-16T09:23:38;101831.14;;;13.60;26.49
38452;BME280;24231;52.514;13.438;2023-03-16T09:26:05;101834.90;;;14.15;25.85
38452;BME280;24231;52.514;13.438;2023-03-16T09:28:34;101834.16;;;13.38;26.92
38452;BME280;24231;52.514;13.438;2023-03-16T09:31:01;101841.95;;;11.97;28.51
38452;BME280;24231;52.514;13.438;2023-03-16T09:33:29;101841.45;;;11.30;29.19
38452;BME280;24231;52.514;13.438;2023-03-16T09:35:58;101844.33;;;12.21;27.80
38452;BME280;24231;52.514;13.438;2023-03-16T09:38:26;101841.84;;;11.40;28.27
38452;BME280;24231;52.514;13.438;2023-03-16T09:41:00;101840.32;;;12.35;27.76
38452;BME280;24231;52.514;13.438;2023-03-16T09:43:40;101842.76;;;12.07;28.26
38452;BME280;24231;52.514;13.438;2023-03-16T09:46:17;101840.72;;;13.19;26.78
38452;BME280;24231;52.514;13.438;2023-03-16T09:48:55;101841.48;;;12.99;27.45
38452;BME280;24231;52.514;13.438;2023-03-16T09:51:35;101839.19;;;13.37;26.37
38452;BME280;24231;52.514;13.438;2023-03-16T09:54:07;101841.41;;;12.85;26.48
38452;BME280;24231;52.514;13.438;2023-03-16T09:56:41;101840.45;;;13.26;25.43
38452;BME280;24231;52.514;13.438;2023-03-16T09:59:10;101846.24;;;11.85;27.25
38452;BME280;24231;52.514;13.438;2023-03-16T10:01:47;101845.65;;;12.41;26.58
38452;BME280;24231;52.514;13.438;2023-03-16T10:04:30;101844.71;;;12.80;26.07
38452;BME280;24231;52.514;13.438;2023-03-16T10:07:17;101846.51;;;13.34;26.01
38452;BME280;24231;52.514;13.438;2023-03-16T10:09:53;101841.42;;;13.42;25.49
38452;BME280;24231;52.514;13.438;2023-03-16T10:12:25;101842.64;;;14.23;25.15
38452;BME280;24231;52.514;13.438;2023-03-16T10:15:00;101836.65;;;13.60;24.36
38452;BME280;24231;52.514;13.438;2023-03-16T10:17:34;101835.80;;;13.70;23.59
38452;BME280;24231;52.514;13.438;2023-03-16T10:20:07;101834.40;;;13.97;23.83
38452;BME280;24231;52.514;13.438;2023-03-16T10:22:37;101834.88;;;14.26;24.03
38452;BME280;24231;52.514;13.438;2023-03-16T10:25:11;101836.33;;;14.14;24.22
38452;BME280;24231;52.514;13.438;2023-03-16T10:27:43;101835.63;;;13.45;24.01
38452;BME280;24231;52.514;13.438;2023-03-16T10:30:19;101832.80;;;12.95;23.83
38452;BME280;24231;52.514;13.438;2023-03-16T10:32:47;101831.38;;;13.25;24.26
38452;BME280;24231;52.514;13.438;2023-03-16T10:35:26;101831.87;;;13.42;23.64
38452;BME280;24231;52.514;13.438;2023-03-16T10:37:56;101832.53;;;13.07;23.88
38452;BME280;24231;52.514;13.438;2023-03-16T10:40:24;101829.49;;;12.12;24.11
38452;BME280;24231;52.514;13.438;2023-03-16T10:42:51;101823.98;;;13.68;23.59
38452;BME280;24231;52.514;13.438;2023-03-16T10:45:29;101820.92;;;13.63;22.89
38452;BME280;24231;52.514;13.438;2023-03-16T10:48:06;101820.47;;;13.96;22.76
38452;BME280;24231;52.514;13.438;2023-03-16T10:50:33;101818.93;;;13.98;22.69
38452;BME280;24231;52.514;13.438;2023-03-16T10:53:01;101813.59;;;14.13;23.98
38452;BME280;24231;52.514;13.438;2023-03-16T10:55:39;101813.64;;;13.11;25.51
38452;BME280;24231;52.514;13.438;2023-03-16T10:58:07;101820.01;;;12.94;26.14
38452;BME280;24231;52.514;13.438;2023-03-16T11:00:36;101821.41;;;13.50;25.15
38452;BME280;24231;52.514;13.438;2023-03-16T11:03:19;101818.71;;;13.36;24.42
38452;BME280;24231;52.514;13.438;2023-03-16T11:05:54;101821.88;;;12.41;24.78
38452;BME280;24231;52.514;13.438;2023-03-16T11:08:24;101818.41;;;11.69;25.55
38452;BME280;24231;52.514;13.438;2023-03-16T11:10:55;101822.26;;;11.28;25.80
38452;BME280;24231;52.514;13.438;2023-03-16T11:13:30;101825.14;;;11.66;24.66
38452;BME280;24231;52.514;13.438;2023-03-16T11:16:00;101815.57;;;12.74;23.58
38452;BME280;24231;52.514;13.438;2023-03-16T11:18:30;101809.70;;;13.42;22.78
38452;BME280;24231;52.514;13.438;2023-03-16T11:21:03;101806.96;;;13.43;23.55
38452;BME280;24231;52.514;13.438;2023-03-16T11:23:39;101802.04;;;13.77;24.32
38452;BME280;24231;52.514;13.438;2023-03-16T11:26:15;101801.69;;;13.04;24.23
38452;BME280;24231;52.514;13.438;2023-03-16T11:28:46;101797.96;;;13.40;24.05
38452;BME280;24231;52.514;13.438;2023-03-16T11:31:21;101794.11;;;13.82;23.84
38452;BME280;24231;52.514;13.438;2023-03-16T11:33:52;101793.61;;;13.02;24.86
38452;BME280;24231;52.514;13.438;2023-03-16T11:36:31;101798.20;;;13.28;25.54
38452;BME280;24231;52.514;13.438;2023-03-16T11:39:08;101802.25;;;10.83;27.41
38452;BME280;24231;52.514;13.438;2023-03-16T11:41:45;101795.96;;;11.17;27.44
38452;BME280;24231;52.514;13.438;2023-03-16T11:44:20;101790.90;;;12.67;24.58
38452;BME280;24231;52.514;13.438;2023-03-16T11:46:55;101788.95;;;12.55;24.96
38452;BME280;24231;52.514;13.438;2023-03-16T11:50:02;101784.25;;;12.36;24.33
38452;BME280;24231;52.514;13.438;2023-03-16T11:52:39;101785.72;;;11.44;25.93
38452;BME280;24231;52.514;13.438;2023-03-16T11:55:23;101782.08;;;10.48;25.91
38452;BME280;24231;52.514;13.438;2023-03-16T11:58:02;101775.55;;;11.27;25.58
38452;BME280;24231;52.514;13.438;2023-03-16T12:00:40;101774.94;;;11.85;25.44
38452;BME280;24231;52.514;13.438;2023-03-16T12:04:34;101769.76;;;10.79;26.00
38452;BME280;24231;52.514;13.438;2023-03-16T12:07:19;101770.32;;;10.68;26.21
38452;BME280;24231;52.514;13.438;2023-03-16T12:10:02;101772.31;;;10.43;25.50
38452;BME280;24231;52.514;13.438;2023-03-16T12:12:42;101763.44;;;12.02;22.49
38452;BME280;24231;52.514;13.438;2023-03-16T12:15:27;101758.20;;;10.85;24.25
38452;BME280;24231;52.514;13.438;2023-03-16T12:17:59;101757.76;;;10.69;25.39
38452;BME280;24231;52.514;13.438;2023-03-16T12:20:30;101763.77;;;9.93;26.21
38452;BME280;24231;52.514;13.438;2023-03-16T12:23:04;101754.54;;;10.98;25.24
38452;BME280;24231;52.514;13.438;2023-03-16T12:25:36;101758.35;;;10.46;26.38
38452;BME280;24231;52.514;13.438;2023-03-16T12:28:12;101751.64;;;10.49;25.69
38452;BME280;24231;52.514;13.438;2023-03-16T12:30:49;101746.54;;;10.82;25.49
38452;BME280;24231;52.514;13.438;2023-03-16T12:33:26;101748.02;;;10.46;26.67
38452;BME280;24231;52.514;13.438;2023-03-16T12:36:07;101747.65;;;9.73;27.82
38452;BME280;24231;52.514;13.438;2023-03-16T12:38:42;101738.72;;;11.57;25.95
38452;BME280;24231;52.514;13.438;2023-03-16T12:41:20;101734.54;;;10.06;27.39
38452;BME280;24231;52.514;13.438;2023-03-16T12:43:59;101734.81;;;9.44;28.60
38452;BME280;24231;52.514;13.438;2023-03-16T12:46:31;101730.29;;;9.32;28.10
38452;BME280;24231;52.514;13.438;2023-03-16T12:49:04;101730.61;;;8.98;28.71
38452;BME280;24231;52.514;13.438;2023-03-16T12:51:33;101724.46;;;10.03;27.04
38452;BME280;24231;52.514;13.438;2023-03-16T12:54:01;101726.54;;;9.20;27.81
38452;BME280;24231;52.514;13.438;2023-03-16T12:56:30;101725.98;;;9.09;27.75
38452;BME280;24231;52.514;13.438;2023-03-16T12:58:59;101725.73;;;8.78;27.88
38452;BME280;24231;52.514;13.438;2023-03-16T13:01:28;101715.50;;;9.00;26.51